createdAt,value
2023-04-14T00:01:57.204Z,96256.00
2023-04-14T00:04:24.670Z,96259.00
2023-04-14T00:06:52.716Z,96261.00
2023-04-14T00:09:20.147Z,96255.00
2023-04-14T00:11:47.363Z,96256.00
2023-04-14T00:14:14.547Z,96251.00
2023-04-14T00:16:43.063Z,96255.00
2023-04-14T00:19:10.527Z,96248.00
2023-04-14T00:21:37.680Z,96248.00
2023-04-14T00:24:04.875Z,96244.00
2023-04-14T00:26:33.193Z,96243.00
2023-04-14T00:29:00.564Z,96238.00
2023-04-14T00:31:28.133Z,96243.00
2023-04-14T00:33:55.390Z,96239.00
2023-04-14T00:36:22.601Z,96248.00
2023-04-14T00:38:49.874Z,96244.00
2023-04-14T00:41:17.153Z,96243.00
2023-04-14T00:43:44.372Z,96243.00
2023-04-14T00:46:11.687Z,96243.00
2023-04-14T00:48:38.944Z,96247.00
2023-04-14T00:51:06.208Z,96242.00
2023-04-14T00:53:33.481Z,96245.00
2023-04-14T00:56:01.434Z,96248.00
2023-04-14T00:58:28.803Z,96257.00
2023-04-14T01:00:56.440Z,96253.00
2023-04-14T01:03:24.763Z,96251.00
2023-04-14T01:05:52.462Z,96242.00
2023-04-14T01:08:20.394Z,96243.00
2023-04-14T01:11:18.976Z,96247.00
2023-04-14T01:13:56.587Z,96250.00
2023-04-14T01:16:35.101Z,96256.00
2023-04-14T01:19:38.137Z,96260.00
2023-04-14T01:22:06.779Z,96257.00
2023-04-14T01:24:47.465Z,96256.00
2023-04-14T01:27:53.323Z,96251.00
2023-04-14T01:30:39.320Z,96257.00
2023-04-14T01:33:31.486Z,96268.00
2023-04-14T01:36:13.929Z,96271.00
2023-04-14T01:38:56.038Z,96270.00
2023-04-14T01:44:55.643Z,96275.00
2023-04-14T01:47:32.392Z,96270.00
2023-04-14T01:50:00.305Z,96276.00
2023-04-14T01:52:28.169Z,96274.00
2023-04-14T01:54:55.552Z,96278.00
2023-04-14T01:57:26.356Z,96273.00
2023-04-14T01:59:55.109Z,96282.00
2023-04-14T02:02:22.569Z,96277.00
2023-04-14T02:04:51.020Z,96287.00
2023-04-14T02:07:19.992Z,96279.00
2023-04-14T02:09:48.039Z,96278.00
2023-04-14T02:12:15.854Z,96280.00
2023-04-14T02:14:43.815Z,96279.00
2023-04-14T02:17:12.452Z,96286.00
2023-04-14T02:19:39.759Z,96277.00
2023-04-14T02:22:07.376Z,96282.00
2023-04-14T02:24:34.687Z,96272.00
2023-04-14T02:27:20.161Z,96282.00
2023-04-14T02:29:52.611Z,96272.00
2023-04-14T02:32:29.213Z,96270.00
2023-04-14T02:35:04.880Z,96266.00
2023-04-14T02:37:37.824Z,96271.00
2023-04-14T02:40:11.301Z,96276.00
2023-04-14T02:42:41.198Z,96272.00
2023-04-14T02:45:12.327Z,96268.00
2023-04-14T02:47:42.762Z,96278.00
2023-04-14T02:50:12.898Z,96269.00
2023-04-14T02:52:41.049Z,96271.00
2023-04-14T02:55:09.550Z,96271.00
2023-04-14T02:57:37.144Z,96283.00
2023-04-14T03:00:06.158Z,96279.00
2023-04-14T03:02:34.366Z,96284.00
2023-04-14T03:05:02.001Z,96276.00
2023-04-14T03:07:29.763Z,96286.00
2023-04-14T03:09:56.984Z,96296.00
2023-04-14T03:12:25.454Z,96293.00
2023-04-14T03:14:52.778Z,96288.00
2023-04-14T03:17:21.200Z,96285.00
2023-04-14T03:19:49.466Z,96285.00
2023-04-14T03:22:18.323Z,96287.00
2023-04-14T03:24:45.808Z,96278.00
2023-04-14T03:27:16.620Z,96286.00
2023-04-14T03:29:48.898Z,96295.00
2023-04-14T03:32:18.972Z,96289.00
2023-04-14T03:34:53.625Z,96286.00
2023-04-14T03:37:25.256Z,96287.00
2023-04-14T03:39:53.172Z,96286.00
2023-04-14T03:42:21.313Z,96289.00
2023-04-14T03:44:53.166Z,96293.00
2023-04-14T03:47:23.579Z,96295.00
2023-04-14T03:49:52.330Z,96298.00
2023-04-14T03:52:21.050Z,96290.00
2023-04-14T03:54:48.993Z,96297.00
2023-04-14T03:57:17.743Z,96294.00
2023-04-14T03:59:45.880Z,96303.00
2023-04-14T04:02:13.270Z,96293.00
2023-04-14T04:04:41.052Z,96292.00
2023-04-14T04:07:10.514Z,96293.00
2023-04-14T04:09:38.786Z,96295.00
2023-04-14T04:12:07.144Z,96296.00
2023-04-14T04:14:38.529Z,96298.00
2023-04-14T04:17:08.537Z,96299.00
2023-04-14T04:19:37.209Z,96301.00
2023-04-14T04:22:04.916Z,96297.00
2023-04-14T04:24:37.865Z,96302.00
2023-04-14T04:27:09.855Z,96316.00
2023-04-14T04:29:41.720Z,96315.00
2023-04-14T04:32:08.918Z,96314.00
2023-04-14T04:34:36.599Z,96321.00
2023-04-14T04:37:04.316Z,96312.00
2023-04-14T04:39:31.522Z,96311.00
2023-04-14T04:42:03.712Z,96322.00
2023-04-14T04:44:32.672Z,96317.00
2023-04-14T04:47:00.235Z,96322.00
2023-04-14T04:49:27.889Z,96317.00
2023-04-14T04:51:56.558Z,96327.00
2023-04-14T04:54:23.843Z,96333.00
2023-04-14T04:56:51.055Z,96326.00
2023-04-14T04:59:18.232Z,96327.00
2023-04-14T05:01:45.522Z,96331.00
2023-04-14T05:04:12.805Z,96322.00
2023-04-14T05:06:40.004Z,96327.00
2023-04-14T05:09:07.396Z,96335.00
2023-04-14T05:11:35.380Z,96339.00
2023-04-14T05:14:02.945Z,96335.00
2023-04-14T05:16:30.351Z,96343.00
2023-04-14T05:18:57.714Z,96332.00
2023-04-14T05:21:25.017Z,96344.00
2023-04-14T05:23:52.226Z,96349.00
2023-04-14T05:26:38.841Z,96355.00
2023-04-14T05:29:06.567Z,96352.00
2023-04-14T05:31:33.775Z,96349.00
2023-04-14T05:34:01.181Z,96357.00
2023-04-14T05:36:28.473Z,96344.00
2023-04-14T05:38:55.646Z,96359.00
2023-04-14T05:41:23.517Z,96355.00
2023-04-14T05:43:50.809Z,96357.00
2023-04-14T05:46:18.089Z,96347.00
2023-04-14T05:48:45.298Z,96358.00
2023-04-14T05:51:12.653Z,96351.00
2023-04-14T05:53:39.810Z,96358.00
2023-04-14T05:56:07.353Z,96352.00
2023-04-14T05:58:34.544Z,96350.00
2023-04-14T06:01:03.921Z,96348.00
2023-04-14T06:03:31.786Z,96349.00
2023-04-14T06:05:59.111Z,96338.00
2023-04-14T06:08:26.278Z,96340.00
2023-04-14T06:10:53.490Z,96349.00
2023-04-14T06:13:22.807Z,96350.00
2023-04-14T06:15:51.107Z,96349.00
2023-04-14T06:18:18.524Z,96347.00
2023-04-14T06:20:46.186Z,96346.00
2023-04-14T06:23:13.394Z,96340.00
2023-04-14T06:25:41.045Z,96337.00
2023-04-14T06:28:08.244Z,96337.00
2023-04-14T06:30:35.417Z,96336.00
2023-04-14T06:33:04.686Z,96336.00
2023-04-14T06:35:33.547Z,96345.00
2023-04-14T06:38:04.238Z,96342.00
2023-04-14T06:40:31.443Z,96341.00
2023-04-14T06:42:58.597Z,96337.00
2023-04-14T06:45:26.146Z,96327.00
2023-04-14T06:47:53.377Z,96333.00
2023-04-14T06:50:20.590Z,96336.00
2023-04-14T06:52:47.760Z,96338.00
2023-04-14T06:55:15.001Z,96330.00
2023-04-14T06:57:42.198Z,96327.00
2023-04-14T07:00:10.607Z,96327.00
2023-04-14T07:02:38.276Z,96319.00
2023-04-14T07:05:06.286Z,96324.00
2023-04-14T07:07:37.233Z,96328.00
2023-04-14T07:10:04.893Z,96314.00
2023-04-14T07:12:33.084Z,96315.00
2023-04-14T07:15:00.268Z,96308.00
2023-04-14T07:17:27.468Z,96308.00
2023-04-14T07:19:54.882Z,96307.00
2023-04-14T07:22:22.078Z,96304.00
2023-04-14T07:24:49.232Z,96308.00
2023-04-14T07:27:16.472Z,96303.00
2023-04-14T07:29:43.744Z,96311.00
2023-04-14T07:32:13.204Z,96308.00
2023-04-14T07:34:44.083Z,96297.00
2023-04-14T07:37:11.521Z,96295.00
2023-04-14T07:39:38.916Z,96294.00
2023-04-14T07:42:06.754Z,96286.00
2023-04-14T07:44:34.015Z,96297.00
2023-04-14T07:47:01.243Z,96288.00
2023-04-14T07:49:28.409Z,96284.00
2023-04-14T07:51:56.835Z,96291.00
2023-04-14T07:54:24.277Z,96289.00
2023-04-14T07:56:51.449Z,96292.00
2023-04-14T07:59:18.645Z,96281.00
2023-04-14T08:01:46.437Z,96283.00
2023-04-14T08:04:14.013Z,96288.00
2023-04-14T08:06:41.561Z,96286.00
2023-04-14T08:09:08.771Z,96292.00
2023-04-14T08:11:46.521Z,96286.00
2023-04-14T08:14:21.455Z,96289.00
2023-04-14T08:16:49.560Z,96287.00
2023-04-14T08:19:19.003Z,96281.00
2023-04-14T08:21:46.464Z,96284.00
2023-04-14T08:24:13.636Z,96290.00
2023-04-14T08:26:54.122Z,96282.00
2023-04-14T08:29:22.760Z,96287.00
2023-04-14T08:31:57.964Z,96285.00
2023-04-14T08:35:37.966Z,96283.00
2023-04-14T08:37:36.458Z,96286.00
2023-04-14T08:44:17.827Z,96274.00
2023-04-14T08:47:19.629Z,96286.00
2023-04-14T08:50:11.802Z,96274.00
2023-04-14T08:52:44.529Z,96276.00
2023-04-14T08:55:12.430Z,96271.00
2023-04-14T08:57:39.740Z,96271.00
2023-04-14T09:00:07.593Z,96271.00
2023-04-14T09:02:35.115Z,96266.00
2023-04-14T09:05:02.879Z,96267.00
2023-04-14T09:07:30.564Z,96275.00
2023-04-14T09:09:58.393Z,96270.00
2023-04-14T09:12:27.510Z,96273.00
2023-04-14T09:14:57.128Z,96270.00
2023-04-14T09:17:26.124Z,96269.00
2023-04-14T09:20:36.892Z,96272.00
2023-04-14T09:22:40.736Z,96264.00
2023-04-14T09:25:09.322Z,96263.00
2023-04-14T09:27:36.688Z,96257.00
2023-04-14T09:30:04.453Z,96261.00
2023-04-14T09:32:31.812Z,96260.00
2023-04-14T09:34:59.179Z,96260.00
2023-04-14T09:37:26.801Z,96259.00
2023-04-14T09:39:55.696Z,96256.00
2023-04-14T09:42:38.570Z,96253.00
2023-04-14T09:45:06.469Z,96254.00
2023-04-14T09:47:34.278Z,96257.00
2023-04-14T09:50:03.709Z,96250.00
2023-04-14T09:52:38.482Z,96256.00
2023-04-14T09:55:08.042Z,96244.00
2023-04-14T09:57:37.311Z,96262.00
2023-04-14T10:00:17.918Z,96257.00
2023-04-14T10:02:56.357Z,96253.00
2023-04-14T10:05:27.813Z,96252.00
2023-04-14T10:07:55.640Z,96247.00
2023-04-14T10:10:22.946Z,96247.00
2023-04-14T10:12:51.789Z,96238.00
2023-04-14T10:15:19.115Z,96242.00
2023-04-14T10:17:46.541Z,96241.00
2023-04-14T10:20:13.839Z,96233.00
2023-04-14T10:22:42.115Z,96233.00
2023-04-14T10:25:10.671Z,96219.00
2023-04-14T10:27:38.056Z,96227.00
2023-04-14T10:30:06.527Z,96218.00
2023-04-14T10:32:36.989Z,96218.00
2023-04-14T10:35:09.182Z,96212.00
2023-04-14T10:37:37.209Z,96209.00
2023-04-14T10:40:07.139Z,96208.00
2023-04-14T10:42:54.427Z,96215.00
2023-04-14T10:45:22.132Z,96204.00
2023-04-14T10:47:50.832Z,96208.00
2023-04-14T10:50:19.454Z,96192.00
2023-04-14T10:52:56.778Z,96201.00
2023-04-14T10:55:25.493Z,96197.00
2023-04-14T10:57:54.609Z,96186.00
2023-04-14T11:00:26.207Z,96183.00
2023-04-14T11:03:02.556Z,96177.00
2023-04-14T11:05:32.222Z,96181.00
2023-04-14T11:08:02.627Z,96170.00
2023-04-14T11:10:33.729Z,96181.00
2023-04-14T11:13:08.384Z,96173.00
2023-04-14T11:15:51.790Z,96174.00
2023-04-14T11:18:35.745Z,96169.00
2023-04-14T11:21:09.394Z,96159.00
2023-04-14T11:23:37.284Z,96160.00
2023-04-14T11:26:09.424Z,96156.00
2023-04-14T11:28:38.644Z,96145.00
2023-04-14T11:31:08.319Z,96142.00
2023-04-14T11:33:37.394Z,96136.00
2023-04-14T11:36:06.386Z,96135.00
2023-04-14T11:38:40.325Z,96127.00
2023-04-14T11:41:08.309Z,96129.00
2023-04-14T11:43:37.402Z,96125.00
2023-04-14T11:46:06.094Z,96122.00
2023-04-14T11:48:33.349Z,96123.00
2023-04-14T11:51:03.514Z,96116.00
2023-04-14T11:53:32.088Z,96114.00
2023-04-14T11:56:00.837Z,96107.00
2023-04-14T11:58:28.972Z,96104.00
2023-04-14T12:00:59.801Z,96095.00
2023-04-14T12:03:29.371Z,96102.00
2023-04-14T12:06:01.311Z,96095.00
2023-04-14T12:08:32.336Z,96090.00
2023-04-14T12:11:15.579Z,96095.00
2023-04-14T12:13:47.550Z,96079.00
2023-04-14T12:16:15.997Z,96078.00
2023-04-14T12:18:44.206Z,96080.00
2023-04-14T12:21:16.070Z,96082.00
2023-04-14T12:23:48.491Z,96085.00
2023-04-14T12:26:16.486Z,96082.00
2023-04-14T12:28:44.753Z,96072.00
2023-04-14T12:31:12.065Z,96068.00
2023-04-14T12:33:39.581Z,96062.00
2023-04-14T12:36:10.167Z,96065.00
2023-04-14T12:38:37.432Z,96066.00
2023-04-14T12:41:05.459Z,96062.00
2023-04-14T12:43:37.147Z,96063.00
2023-04-14T12:46:05.358Z,96068.00
2023-04-14T12:48:59.257Z,96066.00
2023-04-14T12:51:26.451Z,96061.00
2023-04-14T12:54:06.664Z,96067.00
2023-04-14T12:56:33.869Z,96054.00
2023-04-14T12:59:04.547Z,96050.00
2023-04-14T13:01:31.765Z,96042.00
2023-04-14T13:03:59.053Z,96045.00
2023-04-14T13:06:26.309Z,96033.00
2023-04-14T13:08:55.063Z,96031.00
2023-04-14T13:11:26.073Z,96018.00
2023-04-14T13:13:54.306Z,96029.00
2023-04-14T13:16:22.146Z,96026.00
2023-04-14T13:18:49.940Z,96012.00
2023-04-14T13:21:17.471Z,96023.00
2023-04-14T13:23:44.820Z,96006.00
2023-04-14T13:26:12.774Z,96005.00
2023-04-14T13:28:40.166Z,95993.00
2023-04-14T13:31:07.538Z,95989.00
2023-04-14T13:33:34.934Z,95985.00
2023-04-14T13:36:02.993Z,95982.00
2023-04-14T13:38:30.901Z,95978.00
2023-04-14T13:40:58.241Z,95986.00
2023-04-14T13:43:26.177Z,95983.00
2023-04-14T13:45:57.691Z,95989.00
2023-04-14T13:48:25.353Z,95989.00
2023-04-14T13:50:54.218Z,95986.00
2023-04-14T13:53:21.521Z,95980.00
2023-04-14T13:55:48.726Z,95982.00
2023-04-14T13:58:15.954Z,95975.00
2023-04-14T14:00:43.191Z,95972.00
2023-04-14T14:03:10.609Z,95967.00
2023-04-14T14:05:37.989Z,95959.00
2023-04-14T14:08:05.259Z,95953.00
2023-04-14T14:10:32.455Z,95950.00
2023-04-14T14:12:59.671Z,95947.00
2023-04-14T14:15:27.052Z,95955.00
2023-04-14T14:17:55.080Z,95953.00
2023-04-14T14:20:22.303Z,95955.00
2023-04-14T14:22:49.444Z,95946.00
2023-04-14T14:25:20.422Z,95943.00
2023-04-14T14:27:50.085Z,95946.00
2023-04-14T14:30:17.298Z,95940.00
2023-04-14T14:32:44.477Z,95928.00
2023-04-14T14:35:11.720Z,95928.00
2023-04-14T14:37:40.742Z,95936.00
2023-04-14T14:40:08.696Z,95935.00
2023-04-14T14:42:35.896Z,95927.00
2023-04-14T14:45:03.691Z,95923.00
2023-04-14T14:47:31.754Z,95938.00
2023-04-14T14:50:03.417Z,95944.00
2023-04-14T14:52:34.558Z,95936.00
2023-04-14T14:55:03.053Z,95929.00
2023-04-14T14:57:31.108Z,95929.00
2023-04-14T14:59:58.576Z,95921.00
2023-04-14T15:02:26.059Z,95923.00
2023-04-14T15:04:54.303Z,95922.00
2023-04-14T15:07:21.622Z,95927.00
2023-04-14T15:09:49.890Z,95919.00
2023-04-14T15:12:18.075Z,95921.00
2023-04-14T15:14:45.296Z,95916.00
2023-04-14T15:17:12.494Z,95919.00
2023-04-14T15:19:40.943Z,95921.00
2023-04-14T15:22:09.183Z,95919.00
2023-04-14T15:24:36.409Z,95908.00
2023-04-14T15:27:03.871Z,95906.00
2023-04-14T15:29:31.659Z,95907.00
2023-04-14T15:31:58.955Z,95912.00
2023-04-14T15:34:27.114Z,95910.00
2023-04-14T15:36:54.348Z,95907.00
2023-04-14T15:39:21.612Z,95911.00
2023-04-14T15:41:50.322Z,95908.00
2023-04-14T15:44:18.341Z,95908.00
2023-04-14T15:46:46.229Z,95896.00
2023-04-14T15:49:13.424Z,95904.00
2023-04-14T15:51:40.612Z,95901.00
2023-04-14T15:54:07.881Z,95897.00
2023-04-14T15:56:35.580Z,95903.00
2023-04-14T15:59:02.762Z,95901.00
2023-04-14T16:01:30.069Z,95900.00
2023-04-14T16:03:57.376Z,95902.00
2023-04-14T16:06:24.606Z,95891.00
2023-04-14T16:08:52.098Z,95891.00
2023-04-14T16:11:19.605Z,95898.00
2023-04-14T16:13:46.880Z,95893.00
2023-04-14T16:16:14.990Z,95893.00
2023-04-14T16:18:42.537Z,95896.00
2023-04-14T16:21:09.807Z,95908.00
2023-04-14T16:23:37.003Z,95902.00
2023-04-14T16:26:04.251Z,95919.00
2023-04-14T16:28:31.450Z,95913.00
2023-04-14T16:31:02.711Z,95908.00
2023-04-14T16:33:31.569Z,95903.00
2023-04-14T16:36:03.696Z,95916.00
2023-04-14T16:38:31.711Z,95913.00
2023-04-14T16:41:00.141Z,95903.00
2023-04-14T16:43:28.058Z,95921.00
2023-04-14T16:46:02.344Z,95914.00
2023-04-14T16:48:29.628Z,95910.00
2023-04-14T16:50:57.516Z,95905.00
2023-04-14T16:53:24.709Z,95904.00
2023-04-14T16:55:51.837Z,95901.00
2023-04-14T16:58:18.988Z,95895.00
2023-04-14T17:00:46.264Z,95899.00
2023-04-14T17:03:13.561Z,95898.00
2023-04-14T17:05:40.967Z,95910.00
2023-04-14T17:08:08.129Z,95904.00
2023-04-14T17:10:35.582Z,95896.00
2023-04-14T17:13:02.726Z,95900.00
2023-04-14T17:15:29.881Z,95908.00
2023-04-14T17:17:57.092Z,95906.00
2023-04-14T17:20:25.565Z,95902.00
2023-04-14T17:22:57.629Z,95909.00
2023-04-14T17:25:26.102Z,95911.00
2023-04-14T17:27:53.831Z,95914.00
2023-04-14T17:30:21.143Z,95909.00
2023-04-14T17:32:48.969Z,95912.00
2023-04-14T17:35:16.221Z,95914.00
2023-04-14T17:37:43.587Z,95918.00
2023-04-14T17:40:11.112Z,95916.00
2023-04-14T17:42:38.678Z,95903.00
2023-04-14T17:45:07.213Z,95906.00
2023-04-14T17:47:38.023Z,95903.00
2023-04-14T17:50:06.018Z,95905.00
2023-04-14T17:52:35.358Z,95908.00
2023-04-14T17:55:03.720Z,95913.00
2023-04-14T17:57:30.889Z,95903.00
2023-04-14T17:59:58.979Z,95914.00
2023-04-14T18:02:26.269Z,95914.00
2023-04-14T18:04:53.494Z,95920.00
2023-04-14T18:07:20.647Z,95914.00
2023-04-14T18:09:48.282Z,95915.00
2023-04-14T18:12:15.491Z,95916.00
2023-04-14T18:14:44.584Z,95918.00
2023-04-14T18:17:12.100Z,95912.00
2023-04-14T18:19:39.339Z,95912.00
2023-04-14T18:22:06.588Z,95902.00
2023-04-14T18:28:02.734Z,95904.00
2023-04-14T18:29:52.901Z,95918.00
2023-04-14T18:32:20.445Z,95911.00
2023-04-14T18:34:47.886Z,95920.00
2023-04-14T18:37:15.794Z,95920.00
2023-04-14T18:39:43.509Z,95914.00
2023-04-14T18:42:11.335Z,95918.00
2023-04-14T18:44:38.496Z,95922.00
2023-04-14T18:47:05.688Z,95922.00
2023-04-14T18:49:32.940Z,95920.00
2023-04-14T18:52:00.409Z,95924.00
2023-04-14T18:54:27.710Z,95916.00
2023-04-14T18:56:54.926Z,95932.00
2023-04-14T18:59:23.489Z,95929.00
2023-04-14T19:01:50.939Z,95936.00
2023-04-14T19:04:18.801Z,95927.00
2023-04-14T19:06:48.707Z,95928.00
2023-04-14T19:09:15.958Z,95936.00
2023-04-14T19:11:45.326Z,95930.00
2023-04-14T19:14:12.569Z,95933.00
2023-04-14T19:16:39.823Z,95934.00
2023-04-14T19:19:08.057Z,95934.00
2023-04-14T19:21:35.390Z,95934.00
2023-04-14T19:24:02.597Z,95932.00
2023-04-14T19:26:34.346Z,95943.00
2023-04-14T19:29:01.823Z,95941.00
2023-04-14T19:31:29.267Z,95942.00
2023-04-14T19:33:58.495Z,95942.00
2023-04-14T19:36:25.656Z,95943.00
2023-04-14T19:38:52.797Z,95952.00
2023-04-14T19:41:20.582Z,95953.00
2023-04-14T19:43:47.762Z,95954.00
2023-04-14T19:46:15.122Z,95950.00
2023-04-14T19:48:42.444Z,95943.00
2023-04-14T19:51:09.845Z,95950.00
2023-04-14T19:53:37.519Z,95947.00
2023-04-14T19:56:05.618Z,95940.00
2023-04-14T19:58:33.072Z,95946.00
2023-04-14T20:01:00.948Z,95950.00
2023-04-14T20:03:28.648Z,95945.00
2023-04-14T20:05:57.072Z,95942.00
2023-04-14T20:08:25.041Z,95947.00
2023-04-14T20:10:54.133Z,95945.00
2023-04-14T20:13:22.610Z,95957.00
2023-04-14T20:15:50.625Z,95959.00
2023-04-14T20:18:18.317Z,95952.00
2023-04-14T20:20:46.855Z,95947.00
2023-04-14T20:23:14.381Z,95955.00
2023-04-14T20:25:42.940Z,95946.00
2023-04-14T20:28:10.190Z,95947.00
2023-04-14T20:30:37.702Z,95946.00
2023-04-14T20:33:05.677Z,95938.00
2023-04-14T20:35:36.103Z,95953.00
2023-04-14T20:38:03.337Z,95947.00
2023-04-14T20:40:30.967Z,95947.00
2023-04-14T20:42:58.357Z,95949.00
2023-04-14T20:45:25.766Z,95952.00
2023-04-14T20:47:53.034Z,95954.00
2023-04-14T20:50:20.273Z,95956.00
2023-04-14T20:52:47.511Z,95952.00
2023-04-14T20:55:14.775Z,95940.00
2023-04-14T20:57:42.805Z,95948.00
2023-04-14T21:00:11.984Z,95941.00
2023-04-14T21:02:39.337Z,95948.00
2023-04-14T21:05:06.868Z,95946.00
2023-04-14T21:07:36.227Z,95943.00
2023-04-14T21:10:06.658Z,95948.00
2023-04-14T21:12:35.567Z,95940.00
2023-04-14T21:15:44.030Z,95949.00
2023-04-14T21:17:52.039Z,95947.00
2023-04-14T21:20:19.334Z,95949.00
2023-04-14T21:22:46.656Z,95947.00
2023-04-14T21:25:14.176Z,95950.00
2023-04-14T21:27:41.553Z,95941.00
2023-04-14T21:30:11.606Z,95948.00
2023-04-14T21:32:39.416Z,95942.00
2023-04-14T21:35:08.505Z,95934.00
2023-04-14T21:37:35.771Z,95948.00
2023-04-14T21:40:06.128Z,95941.00
2023-04-14T21:42:33.399Z,95943.00
2023-04-14T21:45:00.985Z,95940.00
2023-04-14T21:47:28.227Z,95944.00
2023-04-14T21:49:56.371Z,95942.00
2023-04-14T21:52:23.612Z,95945.00
2023-04-14T21:54:51.102Z,95938.00
2023-04-14T21:57:18.501Z,95933.00
2023-04-14T22:00:12.995Z,95948.00
2023-04-14T22:02:40.661Z,95950.00
2023-04-14T22:05:08.709Z,95949.00
2023-04-14T22:07:35.911Z,95958.00
2023-04-14T22:10:03.550Z,95955.00
2023-04-14T22:12:35.947Z,95954.00
2023-04-14T22:15:04.494Z,95959.00
2023-04-14T22:17:32.690Z,95957.00
2023-04-14T22:20:00.716Z,95956.00
2023-04-14T22:22:28.629Z,95962.00
2023-04-14T22:24:56.411Z,95957.00
2023-04-14T22:27:23.868Z,95960.00
2023-04-14T22:29:51.415Z,95959.00
2023-04-14T22:32:18.627Z,95964.00
2023-04-14T22:34:45.858Z,95957.00
2023-04-14T22:37:13.226Z,95961.00
2023-04-14T22:39:40.763Z,95964.00
2023-04-14T22:42:08.412Z,95971.00
2023-04-14T22:44:35.664Z,95990.00
2023-04-14T22:47:03.789Z,95989.00
2023-04-14T22:49:31.452Z,95990.00
2023-04-14T22:51:58.645Z,95990.00
2023-04-14T22:54:26.088Z,95992.00
2023-04-14T22:56:53.714Z,95985.00
2023-04-14T22:59:20.963Z,95992.00
2023-04-14T23:01:48.233Z,96000.00
2023-04-14T23:04:16.170Z,95998.00
2023-04-14T23:06:43.619Z,95998.00
2023-04-14T23:09:10.836Z,95995.00
2023-04-14T23:11:38.230Z,96000.00
2023-04-14T23:14:05.395Z,95995.00
2023-04-14T23:16:32.628Z,95993.00
2023-04-14T23:19:00.044Z,95987.00
2023-04-14T23:21:27.454Z,95995.00
2023-04-14T23:23:54.627Z,95990.00
2023-04-14T23:26:22.686Z,95992.00
2023-04-14T23:28:49.997Z,95985.00
2023-04-14T23:31:17.925Z,95991.00
2023-04-14T23:33:47.858Z,95988.00
2023-04-14T23:36:15.345Z,95978.00
2023-04-14T23:38:42.538Z,95982.00
2023-04-14T23:41:09.705Z,95987.00
2023-04-14T23:43:36.890Z,95976.00
2023-04-14T23:46:04.131Z,95982.00
2023-04-14T23:48:31.446Z,95997.00
2023-04-14T23:51:00.978Z,96001.00
2023-04-14T23:53:41.510Z,95986.00
2023-04-14T23:56:08.800Z,95983.00
2023-04-14T23:58:35.992Z,95993.00
